Time;durP1;ratioP1;P1;durP2;ratioP2;P2;SDS_P1;SDS_P2;PMS_P1;PMS_P2;Temp;Humidity;BMP_temperature;BMP_pressure;BME280_temperature;BME280_humidity;BME280_pressure;Samples;Min_cycle;Max_cycle;Signal;HPM_P1;HPM_P2
2023/10/16 00:01:26;;;;;;;1.50;0.60;;;9.70;87.60;;;;;;5106696;28;20051;-69
2023/10/16 00:03:52;;;;;;;1.42;0.60;;;9.70;87.90;;;;;;5119681;28;20020;-69
2023/10/16 00:06:18;;;;;;;1.23;0.43;;;9.70;88.00;;;;;;5119750;28;20038;-69
2023/10/16 00:08:47;;;;;;;1.73;0.52;;;9.70;87.90;;;;;;5120667;28;20080;-68
2023/10/16 00:11:17;;;;;;;2.67;0.63;;;9.60;88.00;;;;;;5120216;28;20494;-69
2023/10/16 00:13:50;;;;;;;0.80;0.40;;;9.60;87.80;;;;;;5106499;28;20070;-68
2023/10/16 00:16:17;;;;;;;1.05;0.40;;;9.60;87.80;;;;;;5094539;28;20494;-68
2023/10/16 00:18:45;;;;;;;1.52;0.40;;;9.60;88.00;;;;;;5120423;28;20032;-68
2023/10/16 00:21:13;;;;;;;1.30;0.35;;;9.60;88.20;;;;;;5120363;28;20027;-70
2023/10/16 00:23:40;;;;;;;1.48;0.40;;;9.60;87.90;;;;;;5120187;28;20020;-70
2023/10/16 00:26:07;;;;;;;1.45;0.50;;;9.50;88.20;;;;;;5120206;28;20058;-69
2023/10/16 00:28:33;;;;;;;1.35;0.45;;;9.50;88.10;;;;;;5119786;28;20099;-69
2023/10/16 00:30:59;;;;;;;3.15;0.52;;;9.50;88.20;;;;;;5101989;28;20059;-69
2023/10/16 00:33:24;;;;;;;1.08;0.50;;;9.50;88.30;;;;;;5119898;28;20475;-69
2023/10/16 00:35:53;;;;;;;3.38;0.50;;;9.50;88.20;;;;;;5120149;28;20121;-70
2023/10/16 00:38:22;;;;;;;2.25;0.50;;;9.40;88.20;;;;;;5120074;28;20049;-70
2023/10/16 00:43:34;;;;;;;2.80;0.68;;;9.40;88.50;;;;;;5118475;28;20077;-69
2023/10/16 00:46:09;;;;;;;1.80;0.55;;;9.40;88.60;;;;;;5101364;28;20019;-68
2023/10/16 00:48:39;;;;;;;1.33;0.50;;;9.40;88.50;;;;;;5119880;28;20487;-69
2023/10/16 00:51:08;;;;;;;1.92;0.60;;;9.40;88.60;;;;;;5119862;28;20111;-69
2023/10/16 00:53:38;;;;;;;0.95;0.32;;;9.40;88.80;;;;;;5119980;28;20092;-69
2023/10/16 00:56:08;;;;;;;2.53;0.50;;;9.30;89.50;;;;;;5101317;28;20027;-70
2023/10/16 00:58:35;;;;;;;1.50;0.50;;;9.30;88.60;;;;;;5119520;28;20038;-69
2023/10/16 01:01:09;;;;;;;1.17;0.40;;;9.30;88.30;;;;;;5101277;28;20052;-68
2023/10/16 01:03:40;;;;;;;1.48;0.50;;;9.30;88.10;;;;;;5119742;28;20387;-69
2023/10/16 01:06:15;;;;;;;2.08;0.50;;;9.30;88.40;;;;;;5119541;28;20147;-69
2023/10/16 01:08:49;;;;;;;1.58;0.40;;;9.30;88.30;;;;;;5119568;28;20042;-69
2023/10/16 01:11:19;;;;;;;1.25;0.40;;;9.30;88.20;;;;;;5132805;27;20057;-69
2023/10/16 01:13:48;;;;;;;2.15;0.50;;;9.20;89.00;;;;;;5118410;28;20095;-70
2023/10/16 01:16:17;;;;;;;1.73;0.50;;;9.30;88.20;;;;;;5119303;28;20040;-68
2023/10/16 01:18:44;;;;;;;0.80;0.45;;;9.20;88.00;;;;;;5119230;28;20108;-69
2023/10/16 01:21:13;;;;;;;1.85;0.43;;;9.20;88.10;;;;;;5119406;28;20024;-69
2023/10/16 01:23:40;;;;;;;0.98;0.40;;;9.20;88.40;;;;;;5119078;28;20069;-69
2023/10/16 01:26:06;;;;;;;1.13;0.60;;;9.20;88.40;;;;;;5119147;28;20034;-69
2023/10/16 01:28:32;;;;;;;1.70;0.60;;;9.20;88.50;;;;;;5118841;28;20068;-69
2023/10/16 01:31:00;;;;;;;0.57;0.28;;;9.20;88.30;;;;;;5119067;28;20023;-69
2023/10/16 01:33:25;;;;;;;1.75;0.40;;;9.20;88.10;;;;;;5118932;28;20069;-69
2023/10/16 01:35:51;;;;;;;1.02;0.40;;;9.20;88.10;;;;;;5089137;28;20032;-68
2023/10/16 01:38:20;;;;;;;1.20;0.40;;;9.20;88.10;;;;;;5100587;28;20076;-69
2023/10/16 01:40:47;;;;;;;1.98;0.50;;;9.20;88.10;;;;;;5110037;28;20505;-68
2023/10/16 01:43:16;;;;;;;0.85;0.40;;;9.20;87.90;;;;;;5096034;28;20027;-68
2023/10/16 01:45:50;;;;;;;1.02;0.50;;;9.20;87.70;;;;;;5118807;28;20495;-70
2023/10/16 01:48:19;;;;;;;1.15;0.57;;;9.10;87.70;;;;;;5118749;28;20011;-69
2023/10/16 01:50:49;;;;;;;1.38;0.50;;;9.20;88.00;;;;;;5118783;28;20055;-69
2023/10/16 01:53:25;;;;;;;3.05;0.50;;;9.10;87.90;;;;;;5100253;28;20018;-70
2023/10/16 01:55:54;;;;;;;2.83;0.52;;;9.10;87.80;;;;;;5118452;28;20118;-69
2023/10/16 01:58:30;;;;;;;1.77;0.50;;;9.10;87.80;;;;;;5118343;28;20092;-68
2023/10/16 02:00:56;;;;;;;2.45;0.43;;;9.10;87.80;;;;;;5118446;28;20168;-68
2023/10/16 02:03:25;;;;;;;1.27;0.50;;;9.10;87.50;;;;;;5118538;28;20027;-69
2023/10/16 02:05:51;;;;;;;1.20;0.50;;;9.10;87.70;;;;;;5118203;28;20028;-70
2023/10/16 02:08:20;;;;;;;1.70;0.52;;;9.10;87.60;;;;;;5118490;28;20068;-69
2023/10/16 02:10:46;;;;;;;1.73;0.55;;;9.10;87.70;;;;;;5130924;27;20046;-69
2023/10/16 02:13:12;;;;;;;2.60;0.50;;;9.20;87.60;;;;;;5099733;28;20023;-69
2023/10/16 02:15:38;;;;;;;1.55;0.40;;;9.20;87.20;;;;;;5118117;28;20038;-69
2023/10/16 02:18:13;;;;;;;1.92;0.40;;;9.20;87.00;;;;;;5100012;28;20471;-69
2023/10/16 02:20:39;;;;;;;1.35;0.50;;;9.20;86.70;;;;;;5118221;28;20031;-69
2023/10/16 02:23:08;;;;;;;1.20;0.30;;;9.10;86.90;;;;;;5118196;28;20514;-69
2023/10/16 02:25:35;;;;;;;1.85;0.40;;;9.10;86.70;;;;;;5117413;28;20051;-69
2023/10/16 02:28:02;;;;;;;1.83;0.65;;;9.10;86.70;;;;;;5117982;28;20118;-69
2023/10/16 02:32:53;;;;;;;2.25;0.50;;;9.10;86.90;;;;;;5118167;28;20030;-69
2023/10/16 02:35:22;;;;;;;1.85;0.45;;;9.20;86.80;;;;;;5117671;28;20034;-69
2023/10/16 02:37:53;;;;;;;1.58;0.40;;;9.10;86.70;;;;;;5117813;28;20027;-69
2023/10/16 02:40:20;;;;;;;1.48;0.50;;;9.10;87.00;;;;;;5112798;28;20020;-69
2023/10/16 02:42:55;;;;;;;1.05;0.50;;;9.10;86.70;;;;;;5092782;28;20027;-69
2023/10/16 02:45:24;;;;;;;1.52;0.40;;;9.10;86.80;;;;;;5099210;28;20393;-69
2023/10/16 02:47:51;;;;;;;3.47;0.70;;;9.10;86.70;;;;;;5117542;28;20468;-69
2023/10/16 02:50:18;;;;;;;2.10;0.52;;;9.10;86.70;;;;;;5117902;28;20024;-69
2023/10/16 02:52:45;;;;;;;1.58;0.32;;;9.10;86.70;;;;;;5117514;28;20103;-68
2023/10/16 02:55:11;;;;;;;3.78;0.55;;;9.10;86.60;;;;;;5117728;28;20190;-69
2023/10/16 02:57:40;;;;;;;0.93;0.40;;;9.10;86.60;;;;;;5117531;28;20091;-68
2023/10/16 03:00:15;;;;;;;2.15;0.57;;;9.10;86.70;;;;;;5117290;28;20551;-69
2023/10/16 03:02:41;;;;;;;3.25;0.50;;;9.00;86.60;;;;;;5117490;28;20539;-69
2023/10/16 03:05:21;;;;;;;2.92;0.60;;;9.00;86.70;;;;;;5117668;28;20062;-70
2023/10/16 03:07:49;;;;;;;1.25;0.60;;;9.00;87.00;;;;;;5117453;28;20480;-69
2023/10/16 03:10:20;;;;;;;2.35;0.50;;;9.00;87.10;;;;;;5117775;28;20080;-69
2023/10/16 03:12:49;;;;;;;0.98;0.40;;;9.00;87.00;;;;;;5117439;28;20045;-70
2023/10/16 03:15:20;;;;;;;1.73;0.50;;;9.00;87.00;;;;;;5117367;28;20039;-70
2023/10/16 03:17:55;;;;;;;1.10;0.47;;;9.00;86.90;;;;;;5117251;28;20096;-70
2023/10/16 03:20:28;;;;;;;3.72;0.40;;;8.90;87.30;;;;;;5117445;28;20475;-69
2023/10/16 03:22:54;;;;;;;2.58;0.50;;;8.90;86.80;;;;;;5099100;28;20046;-69
2023/10/16 03:28:05;;;;;;;2.20;0.50;;;8.90;87.20;;;;;;5117340;28;20568;-70
2023/10/16 03:30:31;;;;;;;2.03;0.40;;;8.90;87.00;;;;;;5117299;28;20047;-70
2023/10/16 03:32:58;;;;;;;1.48;0.47;;;8.80;87.20;;;;;;5117250;28;20032;-70
2023/10/16 03:35:29;;;;;;;1.90;0.60;;;8.80;87.40;;;;;;5117139;28;20050;-70
2023/10/16 03:37:59;;;;;;;1.85;0.40;;;8.80;87.10;;;;;;5118557;28;20036;-69
2023/10/16 03:40:25;;;;;;;0.73;0.38;;;8.80;87.60;;;;;;5120927;28;20103;-70
2023/10/16 03:42:54;;;;;;;3.42;0.60;;;8.80;87.60;;;;;;5102633;28;20031;-70
2023/10/16 03:45:21;;;;;;;1.70;0.40;;;8.70;86.90;;;;;;5120759;28;20415;-70
2023/10/16 03:47:54;;;;;;;1.80;0.60;;;8.80;87.70;;;;;;5120953;28;20020;-69
2023/10/16 03:50:24;;;;;;;2.53;0.60;;;8.70;87.50;;;;;;5108496;28;20011;-70
2023/10/16 03:52:50;;;;;;;1.65;0.63;;;8.70;87.30;;;;;;5120966;28;20391;-70
2023/10/16 03:55:25;;;;;;;1.35;0.45;;;8.70;87.80;;;;;;5102596;28;20035;-69
2023/10/16 03:57:57;;;;;;;2.00;0.50;;;8.70;87.80;;;;;;5120683;28;20031;-69
2023/10/16 04:00:27;;;;;;;0.60;0.40;;;8.70;87.30;;;;;;5120638;28;20407;-69
2023/10/16 04:02:53;;;;;;;0.93;0.40;;;8.70;87.80;;;;;;5102433;28;20091;-70
2023/10/16 04:05:33;;;;;;;2.63;0.55;;;8.70;87.50;;;;;;5120787;28;20016;-70
2023/10/16 04:08:01;;;;;;;1.25;0.45;;;8.70;87.60;;;;;;5102149;28;20488;-70
2023/10/16 04:10:30;;;;;;;1.27;0.47;;;8.70;87.40;;;;;;5120444;27;20038;-70
2023/10/16 04:12:57;;;;;;;1.88;0.50;;;8.70;87.40;;;;;;5120754;28;20020;-69
2023/10/16 04:18:17;;;;;;;2.97;0.50;;;8.70;87.50;;;;;;5120783;28;20084;-69
2023/10/16 04:20:43;;;;;;;1.02;0.38;;;8.70;87.70;;;;;;5120429;28;20422;-69
2023/10/16 04:23:29;;;;;;;1.60;0.47;;;8.70;87.40;;;;;;5120603;28;20032;-68
2023/10/16 04:29:24;;;;;;;1.70;0.43;;;8.70;87.60;;;;;;5120355;28;20042;-68
2023/10/16 04:31:44;;;;;;;1.05;0.47;;;8.70;87.40;;;;;;5120005;28;20064;-68
2023/10/16 04:55:53;;;;;;;1.45;0.40;;;8.60;87.00;;;;;;5120026;28;20472;-69
2023/10/16 05:19:46;;;;;;;1.08;0.30;;;8.60;86.70;;;;;;5119223;28;20027;-69
2023/10/16 06:14:10;;;;;;;1.35;0.60;;;8.70;84.50;;;;;;5118068;28;20030;-69
2023/10/16 06:16:46;;;;;;;4.10;0.50;;;8.70;84.40;;;;;;5118233;28;20383;-69
2023/10/16 06:19:19;;;;;;;2.33;0.50;;;8.70;84.30;;;;;;5117959;28;20266;-69
2023/10/16 06:21:56;;;;;;;1.85;0.80;;;8.70;84.40;;;;;;5099465;28;20032;-69
2023/10/16 06:24:56;;;;;;;1.63;0.50;;;8.70;84.10;;;;;;5099551;28;20095;-70
2023/10/16 06:27:24;;;;;;;1.93;0.80;;;8.70;84.10;;;;;;5114759;28;20032;-70
2023/10/16 06:29:50;;;;;;;1.27;0.47;;;8.70;84.00;;;;;;5117738;28;20024;-69
2023/10/16 06:32:21;;;;;;;1.80;0.43;;;8.70;84.00;;;;;;5099488;28;20760;-69
2023/10/16 06:34:57;;;;;;;1.70;0.80;;;8.70;84.10;;;;;;5117699;28;20518;-69
2023/10/16 06:37:28;;;;;;;1.65;0.55;;;8.70;84.00;;;;;;5105179;28;20387;-69
2023/10/16 06:39:54;;;;;;;1.20;0.50;;;8.70;84.00;;;;;;5115900;28;20027;-69
2023/10/16 06:42:23;;;;;;;2.85;0.50;;;8.70;83.70;;;;;;5087620;28;20035;-69
2023/10/16 06:44:50;;;;;;;2.35;0.60;;;8.70;83.50;;;;;;5117273;28;20056;-69
2023/10/16 06:47:35;;;;;;;2.83;0.77;;;8.70;83.40;;;;;;5117569;28;20484;-69
2023/10/16 06:50:33;;;;;;;1.05;0.43;;;8.70;83.40;;;;;;5097814;28;20016;-69
2023/10/16 06:52:52;;;;;;;2.40;0.43;;;8.70;83.70;;;;;;5116626;28;20036;-69
2023/10/16 06:55:18;;;;;;;1.60;0.50;;;8.80;83.40;;;;;;5117406;28;20024;-68
2023/10/16 06:57:44;;;;;;;2.35;0.70;;;8.70;83.00;;;;;;5117283;28;20039;-68
2023/10/16 07:00:22;;;;;;;2.50;0.50;;;8.80;83.20;;;;;;5098736;28;20044;-69
2023/10/16 07:02:54;;;;;;;2.53;0.55;;;8.80;83.20;;;;;;5117167;28;20023;-69
2023/10/16 07:05:24;;;;;;;2.28;0.32;;;8.80;83.20;;;;;;5099008;28;20461;-69
2023/10/16 07:07:56;;;;;;;3.92;0.70;;;8.80;83.00;;;;;;5098946;28;20028;-69
2023/10/16 07:10:22;;;;;;;1.70;0.70;;;8.80;83.00;;;;;;5129842;28;20023;-68
2023/10/16 07:13:02;;;;;;;1.42;0.50;;;8.80;82.90;;;;;;5118514;28;20069;-68
2023/10/16 07:15:32;;;;;;;2.47;0.70;;;8.80;82.90;;;;;;5114806;28;20027;-69
2023/10/16 07:18:04;;;;;;;1.55;0.55;;;8.90;83.00;;;;;;5120319;28;20031;-69
2023/10/16 07:20:37;;;;;;;1.30;0.60;;;8.90;82.70;;;;;;5121514;28;20483;-70
2023/10/16 07:23:10;;;;;;;1.95;0.63;;;8.90;82.40;;;;;;5121556;28;20023;-69
2023/10/16 07:25:54;;;;;;;1.50;0.47;;;8.90;82.70;;;;;;5120001;28;20032;-70
2023/10/16 07:28:21;;;;;;;3.55;0.65;;;9.00;82.40;;;;;;5120964;28;20026;-69
2023/10/16 07:30:47;;;;;;;2.40;0.70;;;9.00;82.40;;;;;;5121371;28;20024;-69
2023/10/16 07:33:16;;;;;;;1.70;0.52;;;9.00;82.10;;;;;;5114446;27;20024;-70
2023/10/16 07:35:45;;;;;;;1.50;0.43;;;9.00;82.10;;;;;;5120930;28;20019;-69
2023/10/16 07:38:25;;;;;;;2.15;0.60;;;9.00;82.20;;;;;;5119635;28;20023;-70
2023/10/16 07:40:56;;;;;;;2.38;0.70;;;9.10;82.10;;;;;;5097563;28;21383;-68
2023/10/16 07:43:32;;;;;;;2.38;0.70;;;9.10;81.70;;;;;;5117530;28;20027;-69
2023/10/16 07:48:46;;;;;;;1.98;0.63;;;9.10;81.70;;;;;;5120077;28;20106;-70
2023/10/16 07:51:15;;;;;;;4.65;0.73;;;9.10;81.50;;;;;;5101127;28;20019;-70
2023/10/16 07:53:41;;;;;;;1.67;0.60;;;9.20;81.00;;;;;;5101800;28;20062;-70
2023/10/16 07:56:19;;;;;;;1.77;0.70;;;9.20;81.30;;;;;;5120341;28;20503;-71
2023/10/16 07:58:49;;;;;;;3.80;0.60;;;9.20;81.50;;;;;;5119741;28;20476;-70
2023/10/16 08:01:32;;;;;;;1.65;0.60;;;9.20;81.00;;;;;;5117924;27;20052;-69
2023/10/16 08:03:58;;;;;;;2.83;0.70;;;9.30;81.00;;;;;;5128642;27;20106;-70
2023/10/16 08:06:24;;;;;;;2.25;0.50;;;9.30;80.50;;;;;;5119270;28;20063;-69
2023/10/16 08:09:19;;;;;;;1.08;0.50;;;9.40;81.10;;;;;;5119204;28;20111;-69
2023/10/16 08:11:42;;;;;;;1.55;0.50;;;9.40;80.60;;;;;;5109111;28;20024;-70
2023/10/16 08:14:09;;;;;;;3.47;0.93;;;9.50;80.20;;;;;;5120398;28;20089;-70
2023/10/16 08:16:35;;;;;;;2.38;0.60;;;9.60;80.10;;;;;;5120492;28;20023;-69
2023/10/16 08:19:00;;;;;;;2.50;0.68;;;9.70;80.30;;;;;;5120200;28;20457;-70
2023/10/16 08:21:26;;;;;;;1.58;0.47;;;9.80;79.80;;;;;;5120690;28;20019;-69
2023/10/16 08:23:56;;;;;;;3.00;0.60;;;9.80;79.40;;;;;;5119471;28;20023;-69
2023/10/16 08:26:28;;;;;;;4.05;0.82;;;9.80;78.90;;;;;;5120358;28;20103;-74
2023/10/16 08:31:47;;;;;;;1.40;0.47;;;9.90;78.90;;;;;;5120225;28;20019;-74
2023/10/16 08:34:19;;;;;;;3.10;0.90;;;10.00;78.00;;;;;;5120130;28;20492;-74
2023/10/16 08:36:51;;;;;;;3.78;1.00;;;10.00;77.80;;;;;;5101667;28;20114;-74
2023/10/16 08:39:19;;;;;;;2.35;0.77;;;10.00;77.60;;;;;;5100972;28;20024;-74
2023/10/16 08:41:51;;;;;;;1.48;0.70;;;10.00;77.70;;;;;;5118655;28;20483;-74
2023/10/16 08:44:18;;;;;;;1.90;0.85;;;10.00;77.80;;;;;;5119207;28;20023;-72
2023/10/16 08:46:45;;;;;;;1.88;0.70;;;10.00;76.50;;;;;;5116325;28;20039;-77
2023/10/16 08:49:12;;;;;;;1.60;0.70;;;10.00;77.00;;;;;;5124799;27;20027;-76
2023/10/16 08:51:38;;;;;;;3.97;0.70;;;10.00;76.30;;;;;;5124532;27;20047;-76
2023/10/16 08:54:05;;;;;;;3.30;0.65;;;10.00;75.60;;;;;;5113940;28;20123;-76
2023/10/16 08:56:32;;;;;;;2.85;0.50;;;10.00;76.10;;;;;;5115023;28;20016;-75
2023/10/16 08:59:01;;;;;;;1.48;0.60;;;10.00;76.10;;;;;;5119641;28;20475;-75
2023/10/16 09:01:28;;;;;;;1.92;0.80;;;10.00;76.30;;;;;;5119565;28;20063;-75
2023/10/16 09:04:00;;;;;;;1.92;0.40;;;10.10;76.00;;;;;;5118460;28;20074;-75
2023/10/16 09:06:26;;;;;;;1.05;0.40;;;10.20;76.30;;;;;;5119783;28;20038;-76
2023/10/16 09:08:54;;;;;;;3.92;0.70;;;10.40;75.90;;;;;;5119528;28;20490;-76
2023/10/16 09:11:20;;;;;;;3.17;0.45;;;10.50;76.00;;;;;;5105817;28;20015;-79
2023/10/16 09:13:53;;;;;;;1.75;0.70;;;10.60;75.40;;;;;;5119281;28;20102;-73
2023/10/16 09:16:24;;;;;;;3.70;0.70;;;10.60;75.30;;;;;;5099900;27;20042;-75
2023/10/16 09:18:53;;;;;;;4.32;0.82;;;10.70;74.90;;;;;;5136361;27;20365;-75
2023/10/16 09:21:23;;;;;;;1.60;0.60;;;10.80;74.10;;;;;;5127294;27;20110;-74
2023/10/16 09:23:52;;;;;;;2.20;0.70;;;11.00;73.60;;;;;;5121167;27;20674;-73
2023/10/16 09:26:22;;;;;;;1.30;0.70;;;11.10;73.10;;;;;;5110840;28;20031;-73
2023/10/16 09:28:49;;;;;;;1.98;0.70;;;11.20;73.20;;;;;;5119105;28;20012;-73
2023/10/16 09:31:18;;;;;;;1.95;0.60;;;11.30;72.20;;;;;;5099078;28;20070;-72
2023/10/16 09:33:48;;;;;;;2.78;0.65;;;11.50;71.20;;;;;;5125888;27;20020;-71
2023/10/16 09:36:18;;;;;;;1.92;0.68;;;11.60;71.60;;;;;;5117952;28;20095;-73
2023/10/16 09:38:57;;;;;;;2.22;0.50;;;11.70;71.30;;;;;;5131104;27;20024;-75
2023/10/16 09:44:07;;;;;;;3.08;0.68;;;11.80;68.50;;;;;;5119269;27;20028;-74
2023/10/16 09:46:48;;;;;;;2.05;0.60;;;11.70;68.70;;;;;;5115341;27;20031;-73
2023/10/16 09:49:21;;;;;;;1.17;0.60;;;11.50;68.00;;;;;;5117505;27;20026;-73
2023/10/16 09:51:51;;;;;;;2.22;0.80;;;11.40;67.90;;;;;;5117787;28;20475;-73
2023/10/16 09:54:21;;;;;;;1.02;0.50;;;11.40;69.00;;;;;;5099688;28;20549;-72
2023/10/16 09:56:49;;;;;;;1.10;0.57;;;11.40;68.00;;;;;;5108805;27;20023;-72
2023/10/16 09:59:33;;;;;;;1.23;0.47;;;11.40;68.20;;;;;;5112657;27;20023;-73
2023/10/16 10:02:06;;;;;;;1.17;0.57;;;11.40;69.00;;;;;;5118267;27;20048;-74
2023/10/16 10:04:35;;;;;;;1.52;0.57;;;11.50;68.20;;;;;;5118896;27;20054;-73
2023/10/16 10:07:11;;;;;;;1.77;0.60;;;11.50;68.30;;;;;;5115670;27;20024;-74
2023/10/16 10:09:44;;;;;;;1.55;0.70;;;11.50;67.80;;;;;;5118965;27;20113;-74
2023/10/16 10:12:27;;;;;;;2.97;0.65;;;11.60;68.20;;;;;;5116440;27;20437;-77
2023/10/16 10:15:04;;;;;;;;;;;11.70;68.00;;;;;;5117054;28;20059;-73
2023/10/16 10:17:33;;;;;;;2.05;0.70;;;11.70;67.70;;;;;;5115388;28;19961;-74
2023/10/16 10:20:08;;;;;;;1.38;0.63;;;11.70;66.20;;;;;;5125878;27;20019;-73
2023/10/16 10:22:37;;;;;;;1.30;0.50;;;11.70;66.80;;;;;;5125430;27;20027;-74
2023/10/16 10:25:26;;;;;;;1.08;0.60;;;11.80;66.40;;;;;;5120300;27;20023;-74
2023/10/16 10:27:56;;;;;;;1.33;0.50;;;11.80;66.70;;;;;;5111478;27;20020;-74
2023/10/16 10:30:28;;;;;;;1.95;0.75;;;11.90;65.30;;;;;;5116345;27;20016;-75
2023/10/16 10:32:55;;;;;;;5.72;0.52;;;11.90;65.80;;;;;;5117736;27;20039;-73
2023/10/16 10:35:27;;;;;;;2.63;0.65;;;12.00;65.30;;;;;;5121750;27;20019;-73
2023/10/16 10:38:21;;;;;;;1.10;0.43;;;12.00;63.60;;;;;;5121483;27;20483;-72
2023/10/16 10:41:11;;;;;;;1.63;0.70;;;12.10;64.70;;;;;;5117568;27;20023;-73
2023/10/16 10:43:47;;;;;;;2.45;0.40;;;12.10;65.60;;;;;;5094175;28;20059;-76
2023/10/16 10:46:34;;;;;;;2.85;0.50;;;12.20;63.90;;;;;;5097130;28;20013;-73
2023/10/16 10:49:01;;;;;;;1.30;0.40;;;12.20;64.70;;;;;;5114471;28;20100;-73
2023/10/16 10:51:34;;;;;;;0.90;0.50;;;12.30;64.00;;;;;;5110709;27;20093;-73
2023/10/16 10:54:03;;;;;;;1.48;0.50;;;12.30;63.60;;;;;;5107824;28;20026;-75
2023/10/16 10:56:39;;;;;;;1.08;0.50;;;12.30;64.30;;;;;;5111592;28;20053;-76
2023/10/16 10:59:10;;;;;;;1.80;0.60;;;12.40;63.30;;;;;;5112143;28;20055;-80
2023/10/16 11:02:08;;;;;;;1.92;0.70;;;12.40;63.00;;;;;;5119721;28;20070;-74
2023/10/16 11:04:33;;;;;;;1.85;0.70;;;12.50;62.30;;;;;;5118867;28;20077;-77
2023/10/16 11:07:11;;;;;;;1.73;0.73;;;12.50;62.70;;;;;;5117142;28;20024;-77
2023/10/16 11:09:38;;;;;;;1.83;0.80;;;12.50;61.90;;;;;;5085408;28;20098;-76
2023/10/16 11:12:07;;;;;;;1.50;0.45;;;12.50;62.30;;;;;;5124044;28;20060;-72
2023/10/16 11:14:37;;;;;;;0.80;0.40;;;12.60;61.80;;;;;;5109030;28;20099;-85
2023/10/16 11:17:06;;;;;;;2.65;0.70;;;12.70;62.40;;;;;;5111006;28;20031;-74
2023/10/16 11:19:47;;;;;;;1.08;0.43;;;12.70;61.90;;;;;;5107204;28;20027;-79
2023/10/16 11:22:20;;;;;;;1.60;0.50;;;12.70;62.50;;;;;;5109294;28;20023;-76
2023/10/16 11:24:46;;;;;;;;;;;12.80;61.00;;;;;;5117157;28;20023;-71
2023/10/16 11:27:13;;;;;;;1.27;0.45;;;12.80;61.00;;;;;;5117011;28;19903;-76
2023/10/16 11:29:40;;;;;;;1.27;0.50;;;12.80;60.80;;;;;;5116003;28;20028;-76
2023/10/16 11:32:07;;;;;;;1.05;0.45;;;12.90;59.60;;;;;;5096049;28;20026;-76
2023/10/16 11:34:46;;;;;;;1.58;0.55;;;12.80;59.80;;;;;;5116451;28;20024;-75
2023/10/16 11:37:13;;;;;;;2.22;0.55;;;12.90;60.40;;;;;;5116847;28;20086;-76
2023/10/16 11:39:39;;;;;;;0.98;0.30;;;12.90;59.70;;;;;;5098888;28;20117;-76
2023/10/16 11:42:06;;;;;;;0.68;0.30;;;13.00;58.20;;;;;;5116996;28;20062;-74
2023/10/16 11:44:32;;;;;;;1.42;0.60;;;13.00;58.60;;;;;;5117055;28;20050;-75
2023/10/16 11:47:02;;;;;;;1.33;0.40;;;13.00;58.70;;;;;;5098760;28;20012;-73
2023/10/16 11:49:35;;;;;;;1.20;0.50;;;13.10;57.80;;;;;;5098792;28;20034;-75
2023/10/16 11:52:08;;;;;;;;;;;13.10;58.30;;;;;;5099626;28;20023;-73
2023/10/16 11:54:36;;;;;;;1.80;0.50;;;13.20;59.50;;;;;;5117191;28;19918;-73
2023/10/16 11:57:02;;;;;;;0.77;0.40;;;13.30;58.20;;;;;;5117121;28;20075;-74
2023/10/16 11:59:28;;;;;;;1.13;0.40;;;13.20;57.90;;;;;;5118671;28;20099;-72
2023/10/16 12:01:59;;;;;;;2.95;0.50;;;13.30;57.80;;;;;;5120589;28;20022;-75
2023/10/16 12:04:26;;;;;;;1.13;0.50;;;13.20;57.80;;;;;;5120548;28;20057;-74
2023/10/16 12:06:52;;;;;;;0.50;0.30;;;13.30;57.90;;;;;;5120837;28;20426;-74
2023/10/16 12:09:19;;;;;;;1.48;0.32;;;13.30;56.60;;;;;;5124186;27;20045;-74
2023/10/16 12:11:49;;;;;;;1.02;0.40;;;13.30;56.60;;;;;;5129336;27;20632;-75
2023/10/16 12:14:16;;;;;;;1.55;0.32;;;13.30;57.20;;;;;;5103633;28;20165;-76
2023/10/16 12:16:45;;;;;;;0.93;0.40;;;13.40;56.90;;;;;;5120687;28;20034;-77
2023/10/16 12:19:17;;;;;;;1.35;0.45;;;13.40;57.00;;;;;;5105509;28;20023;-77
2023/10/16 12:21:47;;;;;;;3.17;0.60;;;13.40;56.30;;;;;;5120095;28;20110;-78
2023/10/16 12:24:13;;;;;;;1.23;0.40;;;13.50;55.10;;;;;;5120560;27;20266;-77
2023/10/16 12:26:40;;;;;;;1.10;0.40;;;13.50;53.60;;;;;;5119968;28;20084;-76
2023/10/16 12:29:08;;;;;;;1.10;0.40;;;13.50;54.60;;;;;;5120199;28;20031;-75
2023/10/16 12:31:36;;;;;;;1.92;0.65;;;13.50;54.60;;;;;;5120152;28;20037;-74
2023/10/16 12:34:03;;;;;;;1.80;0.50;;;13.60;54.20;;;;;;5101691;28;20024;-75
2023/10/16 12:36:30;;;;;;;2.22;0.60;;;13.60;54.00;;;;;;5120087;28;20496;-75
2023/10/16 12:38:56;;;;;;;2.15;0.50;;;13.60;55.20;;;;;;5120226;28;20114;-74
2023/10/16 12:41:23;;;;;;;1.08;0.50;;;13.60;54.70;;;;;;5119431;28;20059;-74
2023/10/16 12:43:49;;;;;;;1.58;0.65;;;13.70;53.90;;;;;;5120015;28;20024;-75
2023/10/16 12:46:15;;;;;;;1.52;0.60;;;13.70;54.40;;;;;;5101527;28;20035;-73
2023/10/16 12:48:41;;;;;;;2.65;0.60;;;13.70;53.50;;;;;;5120111;28;20020;-76
2023/10/16 12:51:10;;;;;;;1.08;0.50;;;13.70;54.30;;;;;;5101407;28;20130;-73
2023/10/16 12:53:37;;;;;;;2.88;0.50;;;13.70;54.10;;;;;;5105912;28;20028;-75
2023/10/16 12:56:05;;;;;;;1.60;0.68;;;13.70;54.20;;;;;;5119547;28;20043;-75
2023/10/16 12:58:34;;;;;;;1.75;0.60;;;13.70;55.00;;;;;;5119812;28;20053;-74
2023/10/16 13:01:10;;;;;;;2.17;0.50;;;13.80;55.00;;;;;;5119682;28;20125;-73
2023/10/16 13:03:36;;;;;;;1.80;0.60;;;13.70;54.50;;;;;;5118346;28;20028;-75
2023/10/16 13:06:05;;;;;;;0.98;0.40;;;13.70;54.40;;;;;;5103246;28;20024;-74
2023/10/16 13:08:32;;;;;;;0.93;0.50;;;13.70;54.60;;;;;;5101198;28;20026;-73
2023/10/16 13:10:59;;;;;;;1.35;0.50;;;13.80;54.90;;;;;;5119386;28;20027;-74
2023/10/16 13:13:25;;;;;;;1.95;0.65;;;13.80;54.80;;;;;;5119267;28;20061;-75
2023/10/16 13:15:54;;;;;;;1.88;0.63;;;13.80;54.40;;;;;;5114932;28;20024;-76
2023/10/16 13:18:27;;;;;;;1.52;0.60;;;13.80;54.40;;;;;;5119332;28;20077;-74
2023/10/16 13:23:55;;;;;;;2.22;0.55;;;13.80;54.80;;;;;;5082113;27;20134;-74
2023/10/16 13:26:21;;;;;;;2.83;0.57;;;13.90;55.30;;;;;;5101067;28;20120;-72
2023/10/16 13:28:47;;;;;;;3.75;0.70;;;13.90;54.00;;;;;;5100540;28;20480;-73
2023/10/16 13:31:12;;;;;;;1.63;0.55;;;14.00;54.50;;;;;;5119209;28;20019;-73
2023/10/16 13:33:41;;;;;;;0.70;0.38;;;14.00;54.60;;;;;;5116041;28;20395;-72
2023/10/16 13:36:11;;;;;;;0.68;0.45;;;14.00;54.80;;;;;;5118799;28;20072;-72
2023/10/16 13:38:37;;;;;;;1.65;0.52;;;14.00;54.50;;;;;;5118830;28;20024;-74
2023/10/16 13:41:13;;;;;;;1.73;0.65;;;14.00;54.30;;;;;;5106384;28;20114;-72
2023/10/16 13:43:39;;;;;;;1.75;0.68;;;14.10;54.30;;;;;;5117905;28;20024;-73
2023/10/16 13:46:08;;;;;;;1.77;0.60;;;14.10;54.20;;;;;;5117765;28;20015;-72
2023/10/16 13:48:34;;;;;;;2.10;0.60;;;14.10;54.00;;;;;;5117640;28;20026;-72
2023/10/16 13:50:59;;;;;;;2.00;0.57;;;14.10;54.00;;;;;;5100493;28;20484;-73
2023/10/16 13:53:25;;;;;;;1.73;0.40;;;14.20;53.30;;;;;;5118124;28;20024;-73
2023/10/16 13:55:54;;;;;;;3.10;0.60;;;14.20;53.70;;;;;;5099814;28;20047;-72
2023/10/16 13:58:21;;;;;;;0.85;0.40;;;14.10;53.80;;;;;;5115728;28;20024;-72
2023/10/16 14:00:47;;;;;;;2.40;0.50;;;14.20;53.90;;;;;;5100233;28;20048;-76
2023/10/16 14:05:44;;;;;;;1.75;0.60;;;14.20;52.80;;;;;;5118505;28;20122;-75
2023/10/16 14:08:14;;;;;;;4.82;0.60;;;14.30;52.70;;;;;;5117336;28;20104;-75
2023/10/16 14:10:46;;;;;;;0.95;0.30;;;14.30;52.70;;;;;;5130419;27;20019;-74
2023/10/16 14:13:18;;;;;;;1.25;0.50;;;14.30;53.20;;;;;;5099761;28;20073;-76
2023/10/16 14:15:49;;;;;;;1.05;0.52;;;14.40;52.90;;;;;;5117795;28;20024;-73
2023/10/16 14:18:20;;;;;;;1.48;0.57;;;14.40;51.80;;;;;;5119613;28;20099;-72
2023/10/16 14:20:49;;;;;;;1.38;0.45;;;14.40;52.10;;;;;;5116298;28;20016;-72
2023/10/16 14:23:28;;;;;;;0.73;0.40;;;14.40;51.90;;;;;;5117780;28;20027;-73
2023/10/16 14:25:59;;;;;;;4.28;0.50;;;14.40;52.30;;;;;;5087376;28;20076;-74
2023/10/16 14:28:27;;;;;;;1.35;0.40;;;14.30;52.60;;;;;;5117617;28;20028;-73
2023/10/16 14:30:59;;;;;;;2.08;0.40;;;14.40;52.00;;;;;;5118066;28;20023;-73
2023/10/16 14:33:28;;;;;;;1.25;0.40;;;14.40;52.20;;;;;;5118128;28;20019;-73
2023/10/16 14:35:54;;;;;;;1.33;0.50;;;14.40;51.50;;;;;;5117725;28;20055;-71
2023/10/16 14:38:20;;;;;;;3.25;0.52;;;14.50;51.60;;;;;;5099460;28;20106;-72
2023/10/16 14:40:46;;;;;;;1.42;0.55;;;14.50;51.10;;;;;;5117519;28;20058;-73
2023/10/16 14:43:15;;;;;;;1.13;0.55;;;14.50;50.40;;;;;;5117349;28;20016;-73
2023/10/16 14:45:47;;;;;;;0.80;0.50;;;14.50;50.60;;;;;;5117540;28;20028;-74
2023/10/16 14:48:16;;;;;;;1.20;0.60;;;14.50;50.60;;;;;;5098988;28;20023;-74
2023/10/16 14:50:45;;;;;;;2.55;0.50;;;14.50;50.90;;;;;;5118233;28;20108;-74
2023/10/16 14:53:11;;;;;;;2.13;0.43;;;14.50;51.10;;;;;;5117528;28;20020;-73
2023/10/16 14:55:37;;;;;;;1.70;0.50;;;14.50;51.10;;;;;;5117662;28;20023;-73
2023/10/16 14:58:05;;;;;;;1.10;0.40;;;14.60;51.10;;;;;;5117235;28;20103;-73
2023/10/16 15:00:37;;;;;;;1.50;0.50;;;14.60;50.90;;;;;;5099018;28;20048;-72
2023/10/16 15:03:10;;;;;;;0.90;0.40;;;14.60;51.00;;;;;;5117353;28;20028;-72
2023/10/16 15:05:39;;;;;;;;;;;14.60;50.80;;;;;;5099719;28;20533;-77
2023/10/16 15:08:06;;;;;;;1.50;0.47;;;14.60;51.90;;;;;;5117451;28;19926;-79
2023/10/16 15:10:32;;;;;;;1.70;0.55;;;14.60;50.90;;;;;;5099504;28;20016;-72